Terminal Aerodrome Forecast
Issued by NWS

Home | Current Version | Previous Version | Text Only | Print | Product List | Glossary On
Versions: 1 2 3 4 5 6 7 8 9 10 11 12 13 14 15
000
FTUS45 KFGZ 062331
TAFPRC
TAF
KPRC 062331Z 0700/0724 VRB06KT P6SM BKN070 BKN110
     FM070300 19006KT P6SM FEW080 SCT130
     FM071800 VRB02KT P6SM SCT120 PROB30 0720/0724 -TSRA BKN080CB=

USA.gov is the U.S. government's official web portal to all federal, state and local government web resources and services.